San Diego, California
Traffic Map
Current Weather Conditions
San Diego, California
Clear
Clear
83°
Feels Like: 83°
Wind Chill: 83° Ceiling: Unl
Heat Index: 83° Visibility: 10mi
Dew Point: 57° Wind: 7mph
Humidity: 41% Direction: 310° (NW)
Pressure: 29.96in Gusts: 0mph
Raw Report DataKSAN 241951Z 31006KT 10SM CLR 28/14 A2996 RMK AO2 SLP146 T02830139
Traffic Incident Summary
Active as of:
Severity:
Category:
InformationThere was an issue retrieving the traffic information for this location. Please try a different location or try again shortly.
Advertisements
Track Severe Weather on mobile